sensor_id;sensor_type;location;lat;lon;timestamp;P1;durP1;ratioP1;P2;durP2;ratioP2
18320;SDS011;54904;54.350;18.664;2023-05-07T00:02:26;1.77;;;1.67;;
18320;SDS011;54904;54.350;18.664;2023-05-07T00:04:53;2.93;;;1.93;;
18320;SDS011;54904;54.350;18.664;2023-05-07T00:07:20;2.97;;;1.80;;
18320;SDS011;54904;54.350;18.664;2023-05-07T00:09:47;2.17;;;1.93;;
18320;SDS011;54904;54.350;18.664;2023-05-07T00:12:14;2.33;;;2.13;;
18320;SDS011;54904;54.350;18.664;2023-05-07T00:14:43;2.03;;;1.90;;
18320;SDS011;54904;54.350;18.664;2023-05-07T00:17:11;4.13;;;1.93;;
18320;SDS011;54904;54.350;18.664;2023-05-07T00:19:39;2.13;;;1.90;;
18320;SDS011;54904;54.350;18.664;2023-05-07T00:22:07;2.07;;;1.80;;
18320;SDS011;54904;54.350;18.664;2023-05-07T00:24:34;2.03;;;1.40;;
18320;SDS011;54904;54.350;18.664;2023-05-07T00:27:01;1.90;;;1.73;;
18320;SDS011;54904;54.350;18.664;2023-05-07T00:29:29;1.50;;;1.30;;
18320;SDS011;54904;54.350;18.664;2023-05-07T00:31:56;1.97;;;1.70;;
18320;SDS011;54904;54.350;18.664;2023-05-07T00:34:23;1.80;;;1.70;;
18320;SDS011;54904;54.350;18.664;2023-05-07T00:36:51;1.80;;;1.70;;
18320;SDS011;54904;54.350;18.664;2023-05-07T00:39:18;1.80;;;1.70;;
18320;SDS011;54904;54.350;18.664;2023-05-07T00:41:46;1.90;;;1.70;;
18320;SDS011;54904;54.350;18.664;2023-05-07T00:44:13;1.73;;;1.63;;
18320;SDS011;54904;54.350;18.664;2023-05-07T00:46:40;2.03;;;1.90;;
18320;SDS011;54904;54.350;18.664;2023-05-07T00:49:07;2.17;;;1.77;;
18320;SDS011;54904;54.350;18.664;2023-05-07T00:51:35;4.43;;;2.20;;
18320;SDS011;54904;54.350;18.664;2023-05-07T00:54:03;2.30;;;2.07;;
18320;SDS011;54904;54.350;18.664;2023-05-07T00:56:31;3.10;;;1.83;;
18320;SDS011;54904;54.350;18.664;2023-05-07T00:58:58;1.80;;;1.70;;
18320;SDS011;54904;54.350;18.664;2023-05-07T01:01:26;1.93;;;1.80;;
18320;SDS011;54904;54.350;18.664;2023-05-07T01:03:54;1.93;;;1.70;;
18320;SDS011;54904;54.350;18.664;2023-05-07T01:06:21;1.60;;;1.50;;
18320;SDS011;54904;54.350;18.664;2023-05-07T01:08:50;1.80;;;1.70;;
18320;SDS011;54904;54.350;18.664;2023-05-07T01:11:22;1.80;;;1.70;;
18320;SDS011;54904;54.350;18.664;2023-05-07T01:13:50;2.20;;;1.90;;
18320;SDS011;54904;54.350;18.664;2023-05-07T01:16:19;2.47;;;1.83;;
18320;SDS011;54904;54.350;18.664;2023-05-07T01:18:46;2.13;;;1.80;;
18320;SDS011;54904;54.350;18.664;2023-05-07T01:21:14;2.20;;;1.80;;
18320;SDS011;54904;54.350;18.664;2023-05-07T01:23:44;2.17;;;1.80;;
18320;SDS011;54904;54.350;18.664;2023-05-07T01:26:13;2.20;;;2.00;;
18320;SDS011;54904;54.350;18.664;2023-05-07T01:28:44;2.17;;;1.50;;
18320;SDS011;54904;54.350;18.664;2023-05-07T01:31:11;2.17;;;1.83;;
18320;SDS011;54904;54.350;18.664;2023-05-07T01:33:40;1.93;;;1.70;;
18320;SDS011;54904;54.350;18.664;2023-05-07T01:36:08;3.10;;;1.90;;
18320;SDS011;54904;54.350;18.664;2023-05-07T01:38:36;1.43;;;1.33;;
18320;SDS011;54904;54.350;18.664;2023-05-07T01:41:06;1.77;;;1.67;;
18320;SDS011;54904;54.350;18.664;2023-05-07T01:43:34;2.50;;;1.70;;
18320;SDS011;54904;54.350;18.664;2023-05-07T01:46:01;1.77;;;1.60;;
18320;SDS011;54904;54.350;18.664;2023-05-07T01:48:30;1.60;;;1.50;;
18320;SDS011;54904;54.350;18.664;2023-05-07T01:50:58;1.60;;;1.50;;
18320;SDS011;54904;54.350;18.664;2023-05-07T01:53:26;2.60;;;1.40;;
18320;SDS011;54904;54.350;18.664;2023-05-07T01:55:54;1.90;;;1.50;;
18320;SDS011;54904;54.350;18.664;2023-05-07T01:58:24;1.60;;;1.50;;
18320;SDS011;54904;54.350;18.664;2023-05-07T02:00:51;1.87;;;1.50;;
18320;SDS011;54904;54.350;18.664;2023-05-07T02:03:18;1.63;;;1.53;;
18320;SDS011;54904;54.350;18.664;2023-05-07T02:05:55;1.67;;;1.57;;
18320;SDS011;54904;54.350;18.664;2023-05-07T02:08:32;1.50;;;1.40;;
18320;SDS011;54904;54.350;18.664;2023-05-07T02:10:59;2.03;;;1.73;;
18320;SDS011;54904;54.350;18.664;2023-05-07T02:13:28;1.93;;;1.60;;
18320;SDS011;54904;54.350;18.664;2023-05-07T02:15:57;2.17;;;1.60;;
18320;SDS011;54904;54.350;18.664;2023-05-07T02:18:25;1.50;;;1.40;;
18320;SDS011;54904;54.350;18.664;2023-05-07T02:20:53;1.50;;;1.30;;
18320;SDS011;54904;54.350;18.664;2023-05-07T02:23:20;1.40;;;1.30;;
18320;SDS011;54904;54.350;18.664;2023-05-07T02:25:48;1.67;;;1.57;;
18320;SDS011;54904;54.350;18.664;2023-05-07T02:28:15;2.00;;;1.70;;
18320;SDS011;54904;54.350;18.664;2023-05-07T02:30:50;1.70;;;1.60;;
18320;SDS011;54904;54.350;18.664;2023-05-07T02:33:18;2.90;;;1.50;;
18320;SDS011;54904;54.350;18.664;2023-05-07T02:35:45;2.73;;;1.30;;
18320;SDS011;54904;54.350;18.664;2023-05-07T02:38:14;1.50;;;1.40;;
18320;SDS011;54904;54.350;18.664;2023-05-07T02:40:42;3.07;;;1.40;;
18320;SDS011;54904;54.350;18.664;2023-05-07T02:43:10;2.00;;;1.80;;
18320;SDS011;54904;54.350;18.664;2023-05-07T02:45:40;1.80;;;1.50;;
18320;SDS011;54904;54.350;18.664;2023-05-07T02:48:10;3.17;;;1.87;;
18320;SDS011;54904;54.350;18.664;2023-05-07T02:50:37;1.80;;;1.60;;
18320;SDS011;54904;54.350;18.664;2023-05-07T02:53:04;3.07;;;1.93;;
18320;SDS011;54904;54.350;18.664;2023-05-07T02:55:32;1.83;;;1.60;;
18320;SDS011;54904;54.350;18.664;2023-05-07T02:57:59;2.20;;;2.00;;
18320;SDS011;54904;54.350;18.664;2023-05-07T03:00:26;1.60;;;1.50;;
18320;SDS011;54904;54.350;18.664;2023-05-07T03:03:07;2.00;;;1.80;;
18320;SDS011;54904;54.350;18.664;2023-05-07T03:05:36;2.77;;;1.97;;
18320;SDS011;54904;54.350;18.664;2023-05-07T03:08:03;2.07;;;1.83;;
18320;SDS011;54904;54.350;18.664;2023-05-07T03:10:31;1.93;;;1.80;;
18320;SDS011;54904;54.350;18.664;2023-05-07T03:12:58;2.27;;;2.07;;
18320;SDS011;54904;54.350;18.664;2023-05-07T03:15:25;2.43;;;1.83;;
18320;SDS011;54904;54.350;18.664;2023-05-07T03:17:53;2.27;;;1.77;;
18320;SDS011;54904;54.350;18.664;2023-05-07T03:20:21;2.30;;;1.50;;
18320;SDS011;54904;54.350;18.664;2023-05-07T03:22:48;4.87;;;2.00;;
18320;SDS011;54904;54.350;18.664;2023-05-07T03:25:16;3.37;;;1.73;;
18320;SDS011;54904;54.350;18.664;2023-05-07T03:27:43;2.03;;;1.43;;
18320;SDS011;54904;54.350;18.664;2023-05-07T03:30:11;1.97;;;1.77;;
18320;SDS011;54904;54.350;18.664;2023-05-07T03:32:38;2.07;;;1.87;;
18320;SDS011;54904;54.350;18.664;2023-05-07T03:35:09;2.03;;;1.83;;
18320;SDS011;54904;54.350;18.664;2023-05-07T03:37:37;1.90;;;1.77;;
18320;SDS011;54904;54.350;18.664;2023-05-07T03:40:05;2.10;;;1.90;;
18320;SDS011;54904;54.350;18.664;2023-05-07T03:42:42;1.77;;;1.67;;
18320;SDS011;54904;54.350;18.664;2023-05-07T03:45:10;2.17;;;1.70;;
18320;SDS011;54904;54.350;18.664;2023-05-07T03:47:41;1.50;;;1.40;;
18320;SDS011;54904;54.350;18.664;2023-05-07T03:50:11;2.20;;;1.73;;
18320;SDS011;54904;54.350;18.664;2023-05-07T03:52:40;2.30;;;1.83;;
18320;SDS011;54904;54.350;18.664;2023-05-07T03:55:09;4.77;;;2.20;;
18320;SDS011;54904;54.350;18.664;2023-05-07T03:57:39;2.10;;;1.87;;
18320;SDS011;54904;54.350;18.664;2023-05-07T04:00:06;2.07;;;1.80;;
18320;SDS011;54904;54.350;18.664;2023-05-07T04:02:45;3.50;;;1.53;;
18320;SDS011;54904;54.350;18.664;2023-05-07T04:05:15;2.10;;;1.90;;
18320;SDS011;54904;54.350;18.664;2023-05-07T04:07:46;2.03;;;1.80;;
18320;SDS011;54904;54.350;18.664;2023-05-07T04:10:18;4.17;;;2.07;;
18320;SDS011;54904;54.350;18.664;2023-05-07T04:12:48;2.10;;;2.00;;
18320;SDS011;54904;54.350;18.664;2023-05-07T04:15:19;2.13;;;1.80;;
18320;SDS011;54904;54.350;18.664;2023-05-07T04:17:46;4.50;;;2.23;;
18320;SDS011;54904;54.350;18.664;2023-05-07T04:20:16;2.20;;;2.00;;
18320;SDS011;54904;54.350;18.664;2023-05-07T04:22:50;2.50;;;2.30;;
18320;SDS011;54904;54.350;18.664;2023-05-07T04:25:17;2.57;;;2.03;;
18320;SDS011;54904;54.350;18.664;2023-05-07T04:27:44;2.57;;;2.03;;
18320;SDS011;54904;54.350;18.664;2023-05-07T04:30:12;4.03;;;2.63;;
18320;SDS011;54904;54.350;18.664;2023-05-07T04:32:40;3.50;;;2.43;;
18320;SDS011;54904;54.350;18.664;2023-05-07T04:35:07;3.50;;;2.43;;
18320;SDS011;54904;54.350;18.664;2023-05-07T04:37:35;3.53;;;2.00;;
18320;SDS011;54904;54.350;18.664;2023-05-07T04:40:05;2.97;;;2.33;;
18320;SDS011;54904;54.350;18.664;2023-05-07T04:42:33;3.50;;;2.20;;
18320;SDS011;54904;54.350;18.664;2023-05-07T04:45:01;2.17;;;1.80;;
18320;SDS011;54904;54.350;18.664;2023-05-07T04:47:32;2.03;;;1.83;;
18320;SDS011;54904;54.350;18.664;2023-05-07T04:50:00;2.40;;;1.80;;
18320;SDS011;54904;54.350;18.664;2023-05-07T04:52:28;1.80;;;1.70;;
18320;SDS011;54904;54.350;18.664;2023-05-07T04:54:55;1.73;;;1.60;;
18320;SDS011;54904;54.350;18.664;2023-05-07T04:57:23;1.67;;;1.20;;
18320;SDS011;54904;54.350;18.664;2023-05-07T04:59:51;2.30;;;2.07;;
18320;SDS011;54904;54.350;18.664;2023-05-07T05:02:19;1.97;;;1.83;;
18320;SDS011;54904;54.350;18.664;2023-05-07T05:04:46;2.67;;;1.70;;
18320;SDS011;54904;54.350;18.664;2023-05-07T05:07:14;2.87;;;1.87;;
18320;SDS011;54904;54.350;18.664;2023-05-07T05:09:41;1.67;;;1.57;;
18320;SDS011;54904;54.350;18.664;2023-05-07T05:12:09;3.07;;;1.60;;
18320;SDS011;54904;54.350;18.664;2023-05-07T05:14:39;2.20;;;1.97;;
18320;SDS011;54904;54.350;18.664;2023-05-07T05:17:07;1.87;;;1.63;;
18320;SDS011;54904;54.350;18.664;2023-05-07T05:19:35;2.60;;;1.50;;
18320;SDS011;54904;54.350;18.664;2023-05-07T05:22:02;2.10;;;1.90;;
18320;SDS011;54904;54.350;18.664;2023-05-07T05:24:30;3.47;;;2.10;;
18320;SDS011;54904;54.350;18.664;2023-05-07T05:26:58;1.67;;;1.57;;
18320;SDS011;54904;54.350;18.664;2023-05-07T05:29:28;1.67;;;1.57;;
18320;SDS011;54904;54.350;18.664;2023-05-07T05:31:58;2.10;;;1.90;;
18320;SDS011;54904;54.350;18.664;2023-05-07T05:34:27;3.50;;;1.77;;
18320;SDS011;54904;54.350;18.664;2023-05-07T05:36:54;1.80;;;1.50;;
18320;SDS011;54904;54.350;18.664;2023-05-07T05:39:22;1.70;;;1.60;;
18320;SDS011;54904;54.350;18.664;2023-05-07T05:41:49;1.87;;;1.50;;
18320;SDS011;54904;54.350;18.664;2023-05-07T05:44:17;2.23;;;1.40;;
18320;SDS011;54904;54.350;18.664;2023-05-07T05:46:44;1.30;;;1.20;;
18320;SDS011;54904;54.350;18.664;2023-05-07T05:49:13;1.10;;;1.00;;
18320;SDS011;54904;54.350;18.664;2023-05-07T05:51:41;1.60;;;1.47;;
18320;SDS011;54904;54.350;18.664;2023-05-07T05:54:08;1.50;;;1.40;;
18320;SDS011;54904;54.350;18.664;2023-05-07T05:56:36;2.37;;;1.80;;
18320;SDS011;54904;54.350;18.664;2023-05-07T05:59:03;1.27;;;1.13;;
18320;SDS011;54904;54.350;18.664;2023-05-07T06:01:30;1.83;;;1.20;;
18320;SDS011;54904;54.350;18.664;2023-05-07T06:04:01;2.13;;;1.53;;
18320;SDS011;54904;54.350;18.664;2023-05-07T06:06:30;3.40;;;1.50;;
18320;SDS011;54904;54.350;18.664;2023-05-07T06:08:58;1.90;;;1.70;;
18320;SDS011;54904;54.350;18.664;2023-05-07T06:11:33;2.90;;;2.03;;
18320;SDS011;54904;54.350;18.664;2023-05-07T06:14:00;1.63;;;1.53;;
18320;SDS011;54904;54.350;18.664;2023-05-07T06:16:29;2.63;;;1.63;;
18320;SDS011;54904;54.350;18.664;2023-05-07T06:18:56;4.77;;;2.97;;
18320;SDS011;54904;54.350;18.664;2023-05-07T06:21:23;3.97;;;2.97;;
18320;SDS011;54904;54.350;18.664;2023-05-07T06:23:52;3.83;;;2.57;;
18320;SDS011;54904;54.350;18.664;2023-05-07T06:26:20;2.03;;;1.80;;
18320;SDS011;54904;54.350;18.664;2023-05-07T06:28:47;1.50;;;1.40;;
18320;SDS011;54904;54.350;18.664;2023-05-07T06:31:17;1.23;;;1.07;;
18320;SDS011;54904;54.350;18.664;2023-05-07T06:33:53;1.20;;;1.10;;
18320;SDS011;54904;54.350;18.664;2023-05-07T06:36:21;3.03;;;1.40;;
18320;SDS011;54904;54.350;18.664;2023-05-07T06:38:48;4.47;;;2.63;;
18320;SDS011;54904;54.350;18.664;2023-05-07T06:41:19;5.77;;;2.40;;
18320;SDS011;54904;54.350;18.664;2023-05-07T06:43:46;3.70;;;2.47;;
18320;SDS011;54904;54.350;18.664;2023-05-07T06:46:28;3.93;;;2.23;;
18320;SDS011;54904;54.350;18.664;2023-05-07T06:48:56;2.37;;;2.17;;
18320;SDS011;54904;54.350;18.664;2023-05-07T06:51:24;2.77;;;2.20;;
18320;SDS011;54904;54.350;18.664;2023-05-07T06:53:52;3.73;;;1.80;;
18320;SDS011;54904;54.350;18.664;2023-05-07T06:56:20;1.60;;;1.50;;
18320;SDS011;54904;54.350;18.664;2023-05-07T06:58:48;1.23;;;1.13;;
18320;SDS011;54904;54.350;18.664;2023-05-07T07:01:16;2.20;;;1.70;;
18320;SDS011;54904;54.350;18.664;2023-05-07T07:03:43;1.83;;;1.73;;
18320;SDS011;54904;54.350;18.664;2023-05-07T07:06:10;1.63;;;1.50;;
18320;SDS011;54904;54.350;18.664;2023-05-07T07:08:38;2.27;;;1.50;;
18320;SDS011;54904;54.350;18.664;2023-05-07T07:11:05;1.00;;;1.00;;
18320;SDS011;54904;54.350;18.664;2023-05-07T07:13:34;1.33;;;1.10;;
18320;SDS011;54904;54.350;18.664;2023-05-07T07:16:01;5.53;;;1.33;;
18320;SDS011;54904;54.350;18.664;2023-05-07T07:18:29;1.20;;;1.10;;
18320;SDS011;54904;54.350;18.664;2023-05-07T07:20:57;1.60;;;1.50;;
18320;SDS011;54904;54.350;18.664;2023-05-07T07:23:25;1.37;;;1.27;;
18320;SDS011;54904;54.350;18.664;2023-05-07T07:25:53;1.20;;;1.10;;
18320;SDS011;54904;54.350;18.664;2023-05-07T07:28:20;5.10;;;1.57;;
18320;SDS011;54904;54.350;18.664;2023-05-07T07:30:49;1.27;;;0.90;;
18320;SDS011;54904;54.350;18.664;2023-05-07T07:33:17;1.17;;;1.07;;
18320;SDS011;54904;54.350;18.664;2023-05-07T07:35:44;0.90;;;0.90;;
18320;SDS011;54904;54.350;18.664;2023-05-07T07:38:11;1.07;;;1.07;;
18320;SDS011;54904;54.350;18.664;2023-05-07T07:40:38;1.27;;;1.17;;
18320;SDS011;54904;54.350;18.664;2023-05-07T07:43:07;4.23;;;0.90;;
18320;SDS011;54904;54.350;18.664;2023-05-07T07:45:34;1.13;;;1.03;;
18320;SDS011;54904;54.350;18.664;2023-05-07T07:48:03;1.10;;;0.93;;
18320;SDS011;54904;54.350;18.664;2023-05-07T07:50:35;0.90;;;0.90;;
18320;SDS011;54904;54.350;18.664;2023-05-07T07:53:03;1.00;;;1.00;;
18320;SDS011;54904;54.350;18.664;2023-05-07T07:55:30;0.90;;;0.90;;
18320;SDS011;54904;54.350;18.664;2023-05-07T07:57:59;1.23;;;1.13;;
18320;SDS011;54904;54.350;18.664;2023-05-07T08:00:26;1.30;;;1.20;;
18320;SDS011;54904;54.350;18.664;2023-05-07T08:02:55;1.30;;;1.20;;
18320;SDS011;54904;54.350;18.664;2023-05-07T08:05:28;1.80;;;1.47;;
18320;SDS011;54904;54.350;18.664;2023-05-07T08:07:57;2.30;;;1.00;;
18320;SDS011;54904;54.350;18.664;2023-05-07T08:10:28;0.93;;;0.93;;
18320;SDS011;54904;54.350;18.664;2023-05-07T08:13:03;0.80;;;0.80;;
18320;SDS011;54904;54.350;18.664;2023-05-07T08:15:32;0.73;;;0.70;;
18320;SDS011;54904;54.350;18.664;2023-05-07T08:18:00;0.73;;;0.73;;
18320;SDS011;54904;54.350;18.664;2023-05-07T08:20:29;0.70;;;0.70;;
18320;SDS011;54904;54.350;18.664;2023-05-07T08:22:57;0.70;;;0.70;;
18320;SDS011;54904;54.350;18.664;2023-05-07T08:25:25;0.80;;;0.80;;
18320;SDS011;54904;54.350;18.664;2023-05-07T08:27:53;0.63;;;0.63;;
18320;SDS011;54904;54.350;18.664;2023-05-07T08:30:20;2.10;;;0.90;;
18320;SDS011;54904;54.350;18.664;2023-05-07T08:32:48;1.20;;;1.00;;
18320;SDS011;54904;54.350;18.664;2023-05-07T08:35:15;0.90;;;0.90;;
18320;SDS011;54904;54.350;18.664;2023-05-07T08:37:44;1.67;;;0.90;;
18320;SDS011;54904;54.350;18.664;2023-05-07T08:40:11;0.73;;;0.73;;
18320;SDS011;54904;54.350;18.664;2023-05-07T08:42:39;1.60;;;0.70;;
18320;SDS011;54904;54.350;18.664;2023-05-07T08:45:09;0.87;;;0.87;;
18320;SDS011;54904;54.350;18.664;2023-05-07T08:47:40;0.83;;;0.83;;
18320;SDS011;54904;54.350;18.664;2023-05-07T08:50:11;0.93;;;0.93;;
18320;SDS011;54904;54.350;18.664;2023-05-07T08:52:39;1.00;;;1.00;;
18320;SDS011;54904;54.350;18.664;2023-05-07T08:55:09;0.80;;;0.80;;
18320;SDS011;54904;54.350;18.664;2023-05-07T08:57:36;1.10;;;1.00;;
18320;SDS011;54904;54.350;18.664;2023-05-07T09:00:04;1.13;;;1.03;;
18320;SDS011;54904;54.350;18.664;2023-05-07T09:02:34;1.47;;;1.10;;
18320;SDS011;54904;54.350;18.664;2023-05-07T09:05:02;0.90;;;0.90;;
18320;SDS011;54904;54.350;18.664;2023-05-07T09:07:30;0.97;;;0.97;;
18320;SDS011;54904;54.350;18.664;2023-05-07T09:09:58;0.77;;;0.77;;
18320;SDS011;54904;54.350;18.664;2023-05-07T09:12:29;1.33;;;0.80;;
18320;SDS011;54904;54.350;18.664;2023-05-07T09:14:57;0.90;;;0.90;;
18320;SDS011;54904;54.350;18.664;2023-05-07T09:17:27;0.70;;;0.70;;
18320;SDS011;54904;54.350;18.664;2023-05-07T09:19:55;0.80;;;0.80;;
18320;SDS011;54904;54.350;18.664;2023-05-07T09:22:22;0.70;;;0.70;;
18320;SDS011;54904;54.350;18.664;2023-05-07T09:24:59;0.60;;;0.60;;
18320;SDS011;54904;54.350;18.664;2023-05-07T09:27:27;0.90;;;0.90;;
18320;SDS011;54904;54.350;18.664;2023-05-07T09:29:57;0.80;;;0.80;;
18320;SDS011;54904;54.350;18.664;2023-05-07T09:32:25;0.60;;;0.60;;
18320;SDS011;54904;54.350;18.664;2023-05-07T09:34:53;1.23;;;0.90;;
18320;SDS011;54904;54.350;18.664;2023-05-07T09:37:23;0.67;;;0.60;;
18320;SDS011;54904;54.350;18.664;2023-05-07T09:39:53;0.80;;;0.80;;
18320;SDS011;54904;54.350;18.664;2023-05-07T09:42:23;0.77;;;0.70;;
18320;SDS011;54904;54.350;18.664;2023-05-07T09:44:54;0.77;;;0.70;;
18320;SDS011;54904;54.350;18.664;2023-05-07T09:47:26;0.90;;;0.90;;
18320;SDS011;54904;54.350;18.664;2023-05-07T09:50:02;2.30;;;1.10;;
18320;SDS011;54904;54.350;18.664;2023-05-07T09:52:36;0.80;;;0.80;;
18320;SDS011;54904;54.350;18.664;2023-05-07T09:55:07;0.80;;;0.80;;
18320;SDS011;54904;54.350;18.664;2023-05-07T09:57:36;1.00;;;1.00;;
18320;SDS011;54904;54.350;18.664;2023-05-07T10:00:09;1.10;;;1.00;;
18320;SDS011;54904;54.350;18.664;2023-05-07T10:02:47;1.67;;;0.80;;
18320;SDS011;54904;54.350;18.664;2023-05-07T10:05:20;0.85;;;0.85;;
18320;SDS011;54904;54.350;18.664;2023-05-07T10:07:49;0.70;;;0.70;;
18320;SDS011;54904;54.350;18.664;2023-05-07T10:10:19;1.43;;;0.97;;
18320;SDS011;54904;54.350;18.664;2023-05-07T10:12:47;0.90;;;0.90;;
18320;SDS011;54904;54.350;18.664;2023-05-07T10:15:25;0.80;;;0.80;;
18320;SDS011;54904;54.350;18.664;2023-05-07T10:17:55;1.23;;;1.00;;
18320;SDS011;54904;54.350;18.664;2023-05-07T10:20:23;0.70;;;0.70;;
18320;SDS011;54904;54.350;18.664;2023-05-07T10:22:54;1.25;;;1.20;;
18320;SDS011;54904;54.350;18.664;2023-05-07T10:25:31;1.30;;;1.20;;
18320;SDS011;54904;54.350;18.664;2023-05-07T10:28:06;0.80;;;0.80;;
18320;SDS011;54904;54.350;18.664;2023-05-07T10:30:46;0.97;;;0.97;;
18320;SDS011;54904;54.350;18.664;2023-05-07T10:33:24;1.88;;;1.10;;
18320;SDS011;54904;54.350;18.664;2023-05-07T10:35:55;1.20;;;1.00;;
18320;SDS011;54904;54.350;18.664;2023-05-07T10:38:26;1.23;;;1.17;;
18320;SDS011;54904;54.350;18.664;2023-05-07T10:40:54;1.13;;;1.02;;
18320;SDS011;54904;54.350;18.664;2023-05-07T10:43:21;1.65;;;1.40;;
18320;SDS011;54904;54.350;18.664;2023-05-07T10:46:11;3.28;;;1.60;;
18320;SDS011;54904;54.350;18.664;2023-05-07T10:55:18;1.45;;;1.40;;
18320;SDS011;54904;54.350;18.664;2023-05-07T10:58:22;1.23;;;1.17;;
18320;SDS011;54904;54.350;18.664;2023-05-07T11:00:56;3.15;;;1.63;;
18320;SDS011;54904;54.350;18.664;2023-05-07T11:03:30;1.08;;;1.08;;
18320;SDS011;54904;54.350;18.664;2023-05-07T11:06:09;1.10;;;1.10;;
18320;SDS011;54904;54.350;18.664;2023-05-07T11:08:57;2.88;;;1.20;;
18320;SDS011;54904;54.350;18.664;2023-05-07T11:11:45;1.42;;;1.20;;
18320;SDS011;54904;54.350;18.664;2023-05-07T11:17:22;1.00;;;1.00;;
18320;SDS011;54904;54.350;18.664;2023-05-07T11:20:00;1.50;;;1.40;;
18320;SDS011;54904;54.350;18.664;2023-05-07T11:22:40;1.77;;;1.15;;
18320;SDS011;54904;54.350;18.664;2023-05-07T11:25:33;1.50;;;1.40;;
18320;SDS011;54904;54.350;18.664;2023-05-07T11:28:14;1.15;;;1.05;;
18320;SDS011;54904;54.350;18.664;2023-05-07T11:30:57;1.75;;;1.30;;
18320;SDS011;54904;54.350;18.664;2023-05-07T11:33:25;1.55;;;1.45;;
18320;SDS011;54904;54.350;18.664;2023-05-07T11:35:56;1.40;;;1.30;;
18320;SDS011;54904;54.350;18.664;2023-05-07T11:38:30;1.48;;;1.38;;
18320;SDS011;54904;54.350;18.664;2023-05-07T11:41:01;1.60;;;1.38;;
18320;SDS011;54904;54.350;18.664;2023-05-07T11:43:30;1.08;;;1.08;;
18320;SDS011;54904;54.350;18.664;2023-05-07T11:46:04;1.52;;;1.42;;
18320;SDS011;54904;54.350;18.664;2023-05-07T11:48:33;3.78;;;1.70;;
18320;SDS011;54904;54.350;18.664;2023-05-07T11:51:02;2.17;;;1.30;;
18320;SDS011;54904;54.350;18.664;2023-05-07T11:53:35;2.15;;;1.67;;
18320;SDS011;54904;54.350;18.664;2023-05-07T11:56:06;1.88;;;1.75;;
18320;SDS011;54904;54.350;18.664;2023-05-07T11:58:34;1.80;;;1.70;;
18320;SDS011;54904;54.350;18.664;2023-05-07T12:01:01;2.65;;;1.48;;
18320;SDS011;54904;54.350;18.664;2023-05-07T12:03:28;2.95;;;1.30;;
18320;SDS011;54904;54.350;18.664;2023-05-07T12:05:56;2.78;;;1.88;;
18320;SDS011;54904;54.350;18.664;2023-05-07T12:08:24;1.63;;;1.52;;
18320;SDS011;54904;54.350;18.664;2023-05-07T12:10:51;2.10;;;1.77;;
18320;SDS011;54904;54.350;18.664;2023-05-07T12:13:19;5.07;;;1.98;;
18320;SDS011;54904;54.350;18.664;2023-05-07T12:15:48;2.83;;;2.03;;
18320;SDS011;54904;54.350;18.664;2023-05-07T12:18:17;2.20;;;1.80;;
18320;SDS011;54904;54.350;18.664;2023-05-07T12:20:45;2.25;;;1.80;;
18320;SDS011;54904;54.350;18.664;2023-05-07T12:23:12;2.75;;;1.90;;
18320;SDS011;54904;54.350;18.664;2023-05-07T12:25:42;4.35;;;1.90;;
18320;SDS011;54904;54.350;18.664;2023-05-07T12:28:12;1.80;;;1.70;;
18320;SDS011;54904;54.350;18.664;2023-05-07T12:30:41;1.50;;;1.40;;
18320;SDS011;54904;54.350;18.664;2023-05-07T12:33:09;1.50;;;1.40;;
18320;SDS011;54904;54.350;18.664;2023-05-07T12:35:37;3.85;;;1.70;;
18320;SDS011;54904;54.350;18.664;2023-05-07T12:38:07;1.60;;;1.50;;
18320;SDS011;54904;54.350;18.664;2023-05-07T12:40:36;1.60;;;1.50;;
18320;SDS011;54904;54.350;18.664;2023-05-07T12:43:05;1.60;;;1.50;;
18320;SDS011;54904;54.350;18.664;2023-05-07T12:45:35;1.58;;;1.35;;
18320;SDS011;54904;54.350;18.664;2023-05-07T12:48:04;2.78;;;1.95;;
18320;SDS011;54904;54.350;18.664;2023-05-07T12:50:32;2.17;;;1.98;;
18320;SDS011;54904;54.350;18.664;2023-05-07T12:52:59;2.72;;;1.60;;
18320;SDS011;54904;54.350;18.664;2023-05-07T12:55:31;1.50;;;1.40;;
18320;SDS011;54904;54.350;18.664;2023-05-07T12:58:00;1.52;;;1.42;;
18320;SDS011;54904;54.350;18.664;2023-05-07T13:00:36;2.30;;;1.60;;
18320;SDS011;54904;54.350;18.664;2023-05-07T13:03:04;1.48;;;1.38;;
18320;SDS011;54904;54.350;18.664;2023-05-07T13:05:31;1.48;;;1.48;;
18320;SDS011;54904;54.350;18.664;2023-05-07T13:08:01;1.45;;;1.35;;
18320;SDS011;54904;54.350;18.664;2023-05-07T13:10:30;2.00;;;1.70;;
18320;SDS011;54904;54.350;18.664;2023-05-07T13:12:59;1.90;;;1.70;;
18320;SDS011;54904;54.350;18.664;2023-05-07T13:15:26;1.88;;;1.77;;
18320;SDS011;54904;54.350;18.664;2023-05-07T13:17:55;1.50;;;1.40;;
18320;SDS011;54904;54.350;18.664;2023-05-07T13:20:22;1.70;;;1.60;;
18320;SDS011;54904;54.350;18.664;2023-05-07T13:22:49;1.80;;;1.70;;
18320;SDS011;54904;54.350;18.664;2023-05-07T13:25:16;1.95;;;1.50;;
18320;SDS011;54904;54.350;18.664;2023-05-07T13:27:44;1.65;;;1.52;;
18320;SDS011;54904;54.350;18.664;2023-05-07T13:30:11;1.50;;;1.40;;
18320;SDS011;54904;54.350;18.664;2023-05-07T13:32:39;1.55;;;1.45;;
18320;SDS011;54904;54.350;18.664;2023-05-07T13:35:08;1.65;;;1.55;;
18320;SDS011;54904;54.350;18.664;2023-05-07T13:37:35;2.60;;;1.70;;
18320;SDS011;54904;54.350;18.664;2023-05-07T13:40:03;4.57;;;1.50;;
18320;SDS011;54904;54.350;18.664;2023-05-07T13:42:31;3.97;;;2.28;;
18320;SDS011;54904;54.350;18.664;2023-05-07T13:44:58;1.60;;;1.50;;
18320;SDS011;54904;54.350;18.664;2023-05-07T13:47:25;2.33;;;1.70;;
18320;SDS011;54904;54.350;18.664;2023-05-07T13:49:55;1.90;;;1.80;;
18320;SDS011;54904;54.350;18.664;2023-05-07T13:52:24;1.40;;;1.40;;
18320;SDS011;54904;54.350;18.664;2023-05-07T13:54:51;1.52;;;1.42;;
18320;SDS011;54904;54.350;18.664;2023-05-07T13:57:20;2.00;;;1.80;;
18320;SDS011;54904;54.350;18.664;2023-05-07T13:59:47;2.85;;;1.65;;
18320;SDS011;54904;54.350;18.664;2023-05-07T14:02:14;2.08;;;1.80;;
18320;SDS011;54904;54.350;18.664;2023-05-07T14:04:41;4.53;;;2.58;;
18320;SDS011;54904;54.350;18.664;2023-05-07T14:07:09;4.43;;;2.47;;
18320;SDS011;54904;54.350;18.664;2023-05-07T14:09:40;3.03;;;2.05;;
18320;SDS011;54904;54.350;18.664;2023-05-07T14:12:07;2.10;;;1.90;;
18320;SDS011;54904;54.350;18.664;2023-05-07T14:14:38;2.73;;;2.43;;
18320;SDS011;54904;54.350;18.664;2023-05-07T14:17:06;2.40;;;2.10;;
18320;SDS011;54904;54.350;18.664;2023-05-07T14:19:35;1.70;;;1.58;;
18320;SDS011;54904;54.350;18.664;2023-05-07T14:22:36;4.77;;;2.40;;
18320;SDS011;54904;54.350;18.664;2023-05-07T14:25:05;3.28;;;2.47;;
18320;SDS011;54904;54.350;18.664;2023-05-07T14:27:34;2.50;;;2.30;;
18320;SDS011;54904;54.350;18.664;2023-05-07T14:30:01;2.97;;;2.30;;
18320;SDS011;54904;54.350;18.664;2023-05-07T14:32:29;3.00;;;2.17;;
18320;SDS011;54904;54.350;18.664;2023-05-07T14:34:56;4.53;;;2.67;;
18320;SDS011;54904;54.350;18.664;2023-05-07T14:37:23;4.27;;;2.17;;
18320;SDS011;54904;54.350;18.664;2023-05-07T14:39:50;3.92;;;2.38;;
18320;SDS011;54904;54.350;18.664;2023-05-07T14:42:19;3.33;;;2.60;;
18320;SDS011;54904;54.350;18.664;2023-05-07T14:44:48;2.87;;;2.50;;
18320;SDS011;54904;54.350;18.664;2023-05-07T14:47:16;2.73;;;2.30;;
18320;SDS011;54904;54.350;18.664;2023-05-07T14:49:45;5.37;;;2.40;;
18320;SDS011;54904;54.350;18.664;2023-05-07T14:52:13;3.00;;;1.90;;
18320;SDS011;54904;54.350;18.664;2023-05-07T14:54:40;3.57;;;1.90;;
18320;SDS011;54904;54.350;18.664;2023-05-07T14:57:08;3.30;;;2.27;;